International Virtual Aviation Organisation

Eastern Europe and Northern Asia MCD

 

Карточка аэропорта UUDD

Внимание!
Информация на этой странице в стадии наполнения.
Если вы не увидели какой-то информации, или заметили неточность - пожалуйста сообщите нам!
Спасибо!
Команда RU-STAFF
Название аэропортаДомодедово
Название аэропорта (англ.)Domodedovo
Превышение594 ft. (181.1 m.)
Координаты55°24.516', 37°54.384'
Высота перехода10000 ft
Эшелон переходаQNH>=760mm:FL110; QNH<760=>733:FL120; QNH<733:FL70
Коды ответчика1540-1577
Зона ОрВДМосква РПИ (UUWV)
Данные METARUUDD 201000Z 10007MPS 9999 SCT042 09/M02 Q1018 RMK WS R14R R88/CLRD60 NOSIG
Проноз погоды (TAF)UUDD 200755Z 2009/2115 09008MPS 6000 -RA FEW006 OVC013 TX10/2012Z TN01/2103Z TEMPO 2012/2022 09013G18MPS TEMPO 2022/2106 1500 SHRASN BKN006 SCT016CB BECMG 2100/2102 02003G08MPS BECMG 2106/2108 25006MPS
NOTAMshow/hide NOTAM
AWOS   TABLE

Информация о ВПП

ВПП Длина ВПП (м.) Покрытие Курс ВПП Частота ILS
14L2370Железобетон135 
32R2370Железобетон315 
14R3500Цементобетон135110.1
32L3500Цементобетон315109.3
143800Цементобетон135108.5
323800Цементобетон315111.9

Диспетчерские позиции

Позывной Наименование органа УВД Частота
UUDD_TWRДомодедово-Вышка118.600
UUDD_TWRДомодедово-Вышка119.700
UUDD_DELДомодедово-Деливери 129.150
UUDD_GNDДомодедово-Перрон119.000
UUDD_GNDДомодедово-Перрон123.750
UUDD_APPДомодедово-Прилет129.800
UUDD_D_APPДомодедово-Прилет127.700
UUDD_DEPДомодедово-Вылет132.050



Спутниковое изображение